sensor_id;sensor_type;location;lat;lon;timestamp;P1;durP1;ratioP1;P2;durP2;ratioP2
42146;SDS011;27815;43.410;11.852;2022-07-23T00:02:19;12.43;;;5.70;;
42146;SDS011;27815;43.410;11.852;2022-07-23T00:06:23;8.82;;;5.90;;
42146;SDS011;27815;43.410;11.852;2022-07-23T00:10:26;9.57;;;6.45;;
42146;SDS011;27815;43.410;11.852;2022-07-23T00:14:29;12.50;;;6.28;;
42146;SDS011;27815;43.410;11.852;2022-07-23T00:18:32;9.70;;;6.32;;
42146;SDS011;27815;43.410;11.852;2022-07-23T00:22:35;9.52;;;5.55;;
42146;SDS011;27815;43.410;11.852;2022-07-23T00:26:37;7.78;;;5.60;;
42146;SDS011;27815;43.410;11.852;2022-07-23T00:30:40;7.82;;;5.55;;
42146;SDS011;27815;43.410;11.852;2022-07-23T00:34:43;8.32;;;6.07;;
42146;SDS011;27815;43.410;11.852;2022-07-23T00:38:46;11.05;;;5.47;;
42146;SDS011;27815;43.410;11.852;2022-07-23T00:42:49;7.93;;;5.75;;
42146;SDS011;27815;43.410;11.852;2022-07-23T00:46:54;8.88;;;5.75;;
42146;SDS011;27815;43.410;11.852;2022-07-23T00:50:58;10.50;;;6.28;;
42146;SDS011;27815;43.410;11.852;2022-07-23T00:55:02;9.27;;;5.35;;
42146;SDS011;27815;43.410;11.852;2022-07-23T00:59:06;8.02;;;5.90;;
42146;SDS011;27815;43.410;11.852;2022-07-23T01:03:09;9.60;;;5.90;;
42146;SDS011;27815;43.410;11.852;2022-07-23T01:07:12;8.38;;;5.65;;
42146;SDS011;27815;43.410;11.852;2022-07-23T01:11:15;7.20;;;5.35;;
42146;SDS011;27815;43.410;11.852;2022-07-23T01:15:20;10.38;;;5.43;;
42146;SDS011;27815;43.410;11.852;2022-07-23T01:19:23;8.57;;;5.82;;
42146;SDS011;27815;43.410;11.852;2022-07-23T01:23:26;8.77;;;5.38;;
42146;SDS011;27815;43.410;11.852;2022-07-23T01:27:32;7.78;;;5.35;;
42146;SDS011;27815;43.410;11.852;2022-07-23T01:31:38;8.23;;;5.40;;
42146;SDS011;27815;43.410;11.852;2022-07-23T01:35:42;7.82;;;5.68;;
42146;SDS011;27815;43.410;11.852;2022-07-23T01:39:52;7.30;;;5.35;;
42146;SDS011;27815;43.410;11.852;2022-07-23T01:43:55;8.40;;;5.43;;
42146;SDS011;27815;43.410;11.852;2022-07-23T01:47:59;10.20;;;5.38;;
42146;SDS011;27815;43.410;11.852;2022-07-23T01:52:02;6.50;;;4.97;;
42146;SDS011;27815;43.410;11.852;2022-07-23T01:56:20;8.68;;;5.97;;
42146;SDS011;27815;43.410;11.852;2022-07-23T02:00:23;7.72;;;5.47;;
42146;SDS011;27815;43.410;11.852;2022-07-23T02:04:27;9.43;;;6.40;;
42146;SDS011;27815;43.410;11.852;2022-07-23T02:08:30;10.02;;;6.00;;
42146;SDS011;27815;43.410;11.852;2022-07-23T02:12:36;8.55;;;5.40;;
42146;SDS011;27815;43.410;11.852;2022-07-23T02:16:39;11.32;;;6.50;;
42146;SDS011;27815;43.410;11.852;2022-07-23T02:20:42;9.93;;;5.88;;
42146;SDS011;27815;43.410;11.852;2022-07-23T02:24:46;9.02;;;5.88;;
42146;SDS011;27815;43.410;11.852;2022-07-23T02:28:50;7.97;;;6.03;;
42146;SDS011;27815;43.410;11.852;2022-07-23T02:32:52;10.88;;;5.53;;
42146;SDS011;27815;43.410;11.852;2022-07-23T02:36:55;7.45;;;5.57;;
42146;SDS011;27815;43.410;11.852;2022-07-23T02:41:01;9.70;;;5.65;;
42146;SDS011;27815;43.410;11.852;2022-07-23T02:45:06;8.13;;;6.05;;
42146;SDS011;27815;43.410;11.852;2022-07-23T02:49:09;8.07;;;5.65;;
42146;SDS011;27815;43.410;11.852;2022-07-23T02:53:13;11.60;;;5.88;;
42146;SDS011;27815;43.410;11.852;2022-07-23T02:57:17;8.38;;;6.00;;
42146;SDS011;27815;43.410;11.852;2022-07-23T03:01:20;12.55;;;6.13;;
42146;SDS011;27815;43.410;11.852;2022-07-23T03:05:23;7.88;;;5.60;;
42146;SDS011;27815;43.410;11.852;2022-07-23T03:09:26;8.40;;;5.70;;
42146;SDS011;27815;43.410;11.852;2022-07-23T03:13:29;9.20;;;6.05;;
42146;SDS011;27815;43.410;11.852;2022-07-23T03:17:33;9.18;;;5.70;;
42146;SDS011;27815;43.410;11.852;2022-07-23T03:21:37;8.23;;;6.22;;
42146;SDS011;27815;43.410;11.852;2022-07-23T03:25:42;11.45;;;6.05;;
42146;SDS011;27815;43.410;11.852;2022-07-23T03:29:45;11.23;;;6.30;;
42146;SDS011;27815;43.410;11.852;2022-07-23T03:33:48;7.03;;;4.55;;
42146;SDS011;27815;43.410;11.852;2022-07-23T03:37:51;11.50;;;5.85;;
42146;SDS011;27815;43.410;11.852;2022-07-23T03:41:55;8.82;;;5.30;;
42146;SDS011;27815;43.410;11.852;2022-07-23T03:45:58;9.27;;;6.07;;
42146;SDS011;27815;43.410;11.852;2022-07-23T03:50:02;11.05;;;6.35;;
42146;SDS011;27815;43.410;11.852;2022-07-23T03:54:08;8.70;;;6.30;;
42146;SDS011;27815;43.410;11.852;2022-07-23T03:58:12;8.27;;;5.55;;
42146;SDS011;27815;43.410;11.852;2022-07-23T04:02:15;9.70;;;6.38;;
42146;SDS011;27815;43.410;11.852;2022-07-23T04:06:19;11.50;;;6.68;;
42146;SDS011;27815;43.410;11.852;2022-07-23T04:10:22;7.03;;;5.60;;
42146;SDS011;27815;43.410;11.852;2022-07-23T04:14:25;7.32;;;5.35;;
42146;SDS011;27815;43.410;11.852;2022-07-23T04:18:29;10.60;;;5.78;;
42146;SDS011;27815;43.410;11.852;2022-07-23T04:22:40;9.93;;;6.68;;
42146;SDS011;27815;43.410;11.852;2022-07-23T04:26:44;10.15;;;6.45;;
42146;SDS011;27815;43.410;11.852;2022-07-23T04:30:47;9.80;;;5.95;;
42146;SDS011;27815;43.410;11.852;2022-07-23T04:34:52;11.00;;;6.85;;
42146;SDS011;27815;43.410;11.852;2022-07-23T04:38:55;10.52;;;6.05;;
42146;SDS011;27815;43.410;11.852;2022-07-23T04:42:58;9.98;;;6.47;;
42146;SDS011;27815;43.410;11.852;2022-07-23T04:47:01;9.52;;;6.78;;
42146;SDS011;27815;43.410;11.852;2022-07-23T04:51:04;9.23;;;6.50;;
42146;SDS011;27815;43.410;11.852;2022-07-23T04:55:09;8.63;;;7.05;;
42146;SDS011;27815;43.410;11.852;2022-07-23T04:59:12;9.45;;;6.15;;
42146;SDS011;27815;43.410;11.852;2022-07-23T05:03:17;13.98;;;6.55;;
42146;SDS011;27815;43.410;11.852;2022-07-23T05:07:21;10.05;;;7.60;;
42146;SDS011;27815;43.410;11.852;2022-07-23T05:11:25;14.82;;;7.65;;
42146;SDS011;27815;43.410;11.852;2022-07-23T05:15:29;11.43;;;7.35;;
42146;SDS011;27815;43.410;11.852;2022-07-23T05:19:32;12.48;;;6.78;;
42146;SDS011;27815;43.410;11.852;2022-07-23T05:23:36;10.20;;;6.97;;
42146;SDS011;27815;43.410;11.852;2022-07-23T05:27:39;8.18;;;6.10;;
42146;SDS011;27815;43.410;11.852;2022-07-23T05:31:42;10.70;;;7.05;;
42146;SDS011;27815;43.410;11.852;2022-07-23T05:35:45;11.80;;;7.90;;
42146;SDS011;27815;43.410;11.852;2022-07-23T05:40:08;11.45;;;7.95;;
42146;SDS011;27815;43.410;11.852;2022-07-23T05:44:12;23.20;;;16.77;;
42146;SDS011;27815;43.410;11.852;2022-07-23T05:48:18;17.10;;;9.68;;
42146;SDS011;27815;43.410;11.852;2022-07-23T05:52:36;16.83;;;8.47;;
42146;SDS011;27815;43.410;11.852;2022-07-23T05:56:58;20.20;;;8.55;;
42146;SDS011;27815;43.410;11.852;2022-07-23T06:01:01;11.65;;;7.55;;
42146;SDS011;27815;43.410;11.852;2022-07-23T06:05:10;11.32;;;7.60;;
42146;SDS011;27815;43.410;11.852;2022-07-23T06:09:14;12.10;;;8.27;;
42146;SDS011;27815;43.410;11.852;2022-07-23T06:13:18;19.90;;;11.68;;
42146;SDS011;27815;43.410;11.852;2022-07-23T06:17:21;20.08;;;13.18;;
42146;SDS011;27815;43.410;11.852;2022-07-23T06:21:23;16.90;;;11.60;;
42146;SDS011;27815;43.410;11.852;2022-07-23T06:25:47;14.70;;;8.68;;
42146;SDS011;27815;43.410;11.852;2022-07-23T06:29:49;12.77;;;9.82;;
42146;SDS011;27815;43.410;11.852;2022-07-23T06:33:52;13.38;;;8.10;;
42146;SDS011;27815;43.410;11.852;2022-07-23T06:37:55;11.27;;;6.70;;
42146;SDS011;27815;43.410;11.852;2022-07-23T06:41:58;7.53;;;5.97;;
42146;SDS011;27815;43.410;11.852;2022-07-23T06:46:18;9.00;;;6.78;;
42146;SDS011;27815;43.410;11.852;2022-07-23T06:50:24;9.15;;;6.05;;
42146;SDS011;27815;43.410;11.852;2022-07-23T06:54:28;13.70;;;6.97;;
42146;SDS011;27815;43.410;11.852;2022-07-23T06:58:31;8.77;;;6.32;;
42146;SDS011;27815;43.410;11.852;2022-07-23T07:02:34;9.02;;;6.78;;
42146;SDS011;27815;43.410;11.852;2022-07-23T07:06:37;11.60;;;6.53;;
42146;SDS011;27815;43.410;11.852;2022-07-23T07:10:40;12.70;;;6.88;;
42146;SDS011;27815;43.410;11.852;2022-07-23T07:14:43;8.70;;;5.97;;
42146;SDS011;27815;43.410;11.852;2022-07-23T07:18:45;8.27;;;6.25;;
42146;SDS011;27815;43.410;11.852;2022-07-23T07:22:48;9.00;;;6.32;;
42146;SDS011;27815;43.410;11.852;2022-07-23T07:26:53;10.48;;;6.82;;
42146;SDS011;27815;43.410;11.852;2022-07-23T07:30:58;12.53;;;6.47;;
42146;SDS011;27815;43.410;11.852;2022-07-23T07:35:02;7.85;;;6.07;;
42146;SDS011;27815;43.410;11.852;2022-07-23T07:39:06;9.80;;;5.97;;
42146;SDS011;27815;43.410;11.852;2022-07-23T07:43:12;10.60;;;5.93;;
42146;SDS011;27815;43.410;11.852;2022-07-23T07:47:15;10.32;;;6.50;;
42146;SDS011;27815;43.410;11.852;2022-07-23T07:51:18;16.35;;;6.78;;
42146;SDS011;27815;43.410;11.852;2022-07-23T07:55:22;12.73;;;6.70;;
42146;SDS011;27815;43.410;11.852;2022-07-23T07:59:26;14.13;;;6.60;;
42146;SDS011;27815;43.410;11.852;2022-07-23T08:03:34;10.82;;;6.47;;
42146;SDS011;27815;43.410;11.852;2022-07-23T08:07:39;10.07;;;5.85;;
42146;SDS011;27815;43.410;11.852;2022-07-23T08:11:42;10.57;;;6.32;;
42146;SDS011;27815;43.410;11.852;2022-07-23T08:15:45;10.18;;;6.10;;
42146;SDS011;27815;43.410;11.852;2022-07-23T08:19:49;9.40;;;6.00;;
42146;SDS011;27815;43.410;11.852;2022-07-23T08:23:55;10.70;;;6.03;;
42146;SDS011;27815;43.410;11.852;2022-07-23T08:27:59;9.55;;;6.05;;
42146;SDS011;27815;43.410;11.852;2022-07-23T08:32:04;8.50;;;5.97;;
42146;SDS011;27815;43.410;11.852;2022-07-23T08:36:27;9.77;;;6.22;;
42146;SDS011;27815;43.410;11.852;2022-07-23T08:40:31;11.02;;;6.13;;
42146;SDS011;27815;43.410;11.852;2022-07-23T08:44:39;7.15;;;5.90;;
42146;SDS011;27815;43.410;11.852;2022-07-23T08:48:48;9.00;;;5.88;;
42146;SDS011;27815;43.410;11.852;2022-07-23T08:52:51;8.07;;;6.03;;
42146;SDS011;27815;43.410;11.852;2022-07-23T08:56:55;7.82;;;6.03;;
42146;SDS011;27815;43.410;11.852;2022-07-23T09:06:54;12.95;;;5.90;;
42146;SDS011;27815;43.410;11.852;2022-07-23T09:12:08;7.35;;;5.65;;
42146;SDS011;27815;43.410;11.852;2022-07-23T09:16:17;8.73;;;5.67;;
42146;SDS011;27815;43.410;11.852;2022-07-23T09:20:28;9.13;;;5.90;;
42146;SDS011;27815;43.410;11.852;2022-07-23T09:29:19;11.57;;;6.00;;
42146;SDS011;27815;43.410;11.852;2022-07-23T09:33:31;8.05;;;5.38;;
42146;SDS011;27815;43.410;11.852;2022-07-23T09:37:38;8.65;;;5.40;;
42146;SDS011;27815;43.410;11.852;2022-07-23T09:41:44;9.95;;;5.78;;
42146;SDS011;27815;43.410;11.852;2022-07-23T09:45:48;11.20;;;5.43;;
42146;SDS011;27815;43.410;11.852;2022-07-23T09:54:03;8.45;;;4.95;;
42146;SDS011;27815;43.410;11.852;2022-07-23T09:58:07;8.32;;;5.50;;
42146;SDS011;27815;43.410;11.852;2022-07-23T10:02:20;7.25;;;5.05;;
42146;SDS011;27815;43.410;11.852;2022-07-23T10:06:52;9.07;;;5.28;;
42146;SDS011;27815;43.410;11.852;2022-07-23T10:11:23;11.60;;;5.45;;
42146;SDS011;27815;43.410;11.852;2022-07-23T10:15:39;8.30;;;4.90;;
42146;SDS011;27815;43.410;11.852;2022-07-23T10:19:45;7.55;;;5.75;;
42146;SDS011;27815;43.410;11.852;2022-07-23T10:23:58;10.13;;;5.50;;
42146;SDS011;27815;43.410;11.852;2022-07-23T10:36:53;6.45;;;5.03;;
42146;SDS011;27815;43.410;11.852;2022-07-23T10:41:34;8.18;;;5.07;;
42146;SDS011;27815;43.410;11.852;2022-07-23T10:45:38;6.70;;;4.65;;
42146;SDS011;27815;43.410;11.852;2022-07-23T10:49:42;9.65;;;5.00;;
42146;SDS011;27815;43.410;11.852;2022-07-23T10:53:56;6.97;;;4.72;;
42146;SDS011;27815;43.410;11.852;2022-07-23T10:58:02;7.72;;;4.95;;
42146;SDS011;27815;43.410;11.852;2022-07-23T11:02:22;8.02;;;5.15;;
42146;SDS011;27815;43.410;11.852;2022-07-23T11:10:52;8.23;;;4.93;;
42146;SDS011;27815;43.410;11.852;2022-07-23T11:15:13;7.20;;;4.82;;
42146;SDS011;27815;43.410;11.852;2022-07-23T11:19:17;8.20;;;4.05;;
42146;SDS011;27815;43.410;11.852;2022-07-23T11:23:20;5.95;;;4.20;;
42146;SDS011;27815;43.410;11.852;2022-07-23T11:27:39;5.70;;;3.97;;
42146;SDS011;27815;43.410;11.852;2022-07-23T11:31:53;6.40;;;4.22;;
42146;SDS011;27815;43.410;11.852;2022-07-23T11:36:11;4.85;;;3.72;;
42146;SDS011;27815;43.410;11.852;2022-07-23T11:40:15;6.07;;;3.90;;
42146;SDS011;27815;43.410;11.852;2022-07-23T11:44:29;5.95;;;3.72;;
42146;SDS011;27815;43.410;11.852;2022-07-23T11:48:42;6.82;;;3.80;;
42146;SDS011;27815;43.410;11.852;2022-07-23T11:52:49;6.82;;;3.97;;
42146;SDS011;27815;43.410;11.852;2022-07-23T11:57:13;5.28;;;3.70;;
42146;SDS011;27815;43.410;11.852;2022-07-23T12:02:42;5.10;;;3.42;;
42146;SDS011;27815;43.410;11.852;2022-07-23T12:06:49;6.05;;;3.65;;
42146;SDS011;27815;43.410;11.852;2022-07-23T12:10:51;5.57;;;3.70;;
42146;SDS011;27815;43.410;11.852;2022-07-23T12:14:56;5.40;;;3.88;;
42146;SDS011;27815;43.410;11.852;2022-07-23T12:19:36;5.78;;;3.63;;
42146;SDS011;27815;43.410;11.852;2022-07-23T12:23:42;5.82;;;3.80;;
42146;SDS011;27815;43.410;11.852;2022-07-23T12:27:58;6.38;;;3.88;;
42146;SDS011;27815;43.410;11.852;2022-07-23T12:32:45;5.72;;;3.85;;
42146;SDS011;27815;43.410;11.852;2022-07-23T12:36:50;9.55;;;4.10;;
42146;SDS011;27815;43.410;11.852;2022-07-23T12:40:54;7.05;;;3.95;;
42146;SDS011;27815;43.410;11.852;2022-07-23T12:45:07;5.75;;;4.00;;
42146;SDS011;27815;43.410;11.852;2022-07-23T12:49:23;5.88;;;3.95;;
42146;SDS011;27815;43.410;11.852;2022-07-23T12:53:33;8.63;;;4.25;;
42146;SDS011;27815;43.410;11.852;2022-07-23T12:57:47;6.85;;;3.78;;
42146;SDS011;27815;43.410;11.852;2022-07-23T13:01:57;5.93;;;4.15;;
42146;SDS011;27815;43.410;11.852;2022-07-23T13:06:03;7.68;;;4.00;;
42146;SDS011;27815;43.410;11.852;2022-07-23T13:10:07;7.15;;;4.18;;
42146;SDS011;27815;43.410;11.852;2022-07-23T13:14:11;5.60;;;3.83;;
42146;SDS011;27815;43.410;11.852;2022-07-23T13:18:18;5.32;;;4.13;;
42146;SDS011;27815;43.410;11.852;2022-07-23T13:22:28;5.82;;;4.28;;
42146;SDS011;27815;43.410;11.852;2022-07-23T13:26:36;5.55;;;4.10;;
42146;SDS011;27815;43.410;11.852;2022-07-23T13:30:42;7.03;;;3.90;;
42146;SDS011;27815;43.410;11.852;2022-07-23T13:34:47;6.72;;;4.10;;
42146;SDS011;27815;43.410;11.852;2022-07-23T13:38:52;8.07;;;4.30;;
42146;SDS011;27815;43.410;11.852;2022-07-23T13:42:58;7.07;;;4.55;;
42146;SDS011;27815;43.410;11.852;2022-07-23T13:47:07;6.18;;;4.35;;
42146;SDS011;27815;43.410;11.852;2022-07-23T13:51:13;6.63;;;4.25;;
42146;SDS011;27815;43.410;11.852;2022-07-23T13:55:32;6.15;;;4.65;;
42146;SDS011;27815;43.410;11.852;2022-07-23T13:59:49;6.05;;;4.15;;
42146;SDS011;27815;43.410;11.852;2022-07-23T14:03:53;5.80;;;4.00;;
42146;SDS011;27815;43.410;11.852;2022-07-23T14:07:56;7.38;;;4.45;;
42146;SDS011;27815;43.410;11.852;2022-07-23T14:12:00;7.15;;;4.30;;
42146;SDS011;27815;43.410;11.852;2022-07-23T14:16:03;5.93;;;4.05;;
42146;SDS011;27815;43.410;11.852;2022-07-23T14:20:08;6.45;;;4.65;;
42146;SDS011;27815;43.410;11.852;2022-07-23T14:24:12;6.18;;;4.10;;
42146;SDS011;27815;43.410;11.852;2022-07-23T14:28:35;6.75;;;4.38;;
42146;SDS011;27815;43.410;11.852;2022-07-23T14:32:44;7.18;;;4.90;;
42146;SDS011;27815;43.410;11.852;2022-07-23T14:36:56;9.48;;;4.90;;
42146;SDS011;27815;43.410;11.852;2022-07-23T14:41:00;7.03;;;4.55;;
42146;SDS011;27815;43.410;11.852;2022-07-23T14:45:03;7.82;;;4.68;;
42146;SDS011;27815;43.410;11.852;2022-07-23T14:49:16;7.55;;;4.75;;
42146;SDS011;27815;43.410;11.852;2022-07-23T14:53:20;6.38;;;4.63;;
42146;SDS011;27815;43.410;11.852;2022-07-23T14:57:26;7.57;;;4.57;;
42146;SDS011;27815;43.410;11.852;2022-07-23T15:01:30;8.20;;;4.95;;
42146;SDS011;27815;43.410;11.852;2022-07-23T15:05:36;6.80;;;4.85;;
42146;SDS011;27815;43.410;11.852;2022-07-23T15:09:43;9.63;;;4.70;;
42146;SDS011;27815;43.410;11.852;2022-07-23T15:14:00;7.47;;;5.30;;
42146;SDS011;27815;43.410;11.852;2022-07-23T15:18:23;9.35;;;5.28;;
42146;SDS011;27815;43.410;11.852;2022-07-23T15:22:34;9.15;;;5.38;;
42146;SDS011;27815;43.410;11.852;2022-07-23T15:27:03;8.57;;;5.00;;
42146;SDS011;27815;43.410;11.852;2022-07-23T15:31:09;6.68;;;4.93;;
42146;SDS011;27815;43.410;11.852;2022-07-23T15:35:15;7.72;;;5.05;;
42146;SDS011;27815;43.410;11.852;2022-07-23T15:39:18;8.30;;;5.38;;
42146;SDS011;27815;43.410;11.852;2022-07-23T15:43:33;8.57;;;4.83;;
42146;SDS011;27815;43.410;11.852;2022-07-23T15:47:40;8.05;;;3.83;;
42146;SDS011;27815;43.410;11.852;2022-07-23T15:51:45;6.40;;;4.40;;
42146;SDS011;27815;43.410;11.852;2022-07-23T15:55:49;6.03;;;4.60;;
42146;SDS011;27815;43.410;11.852;2022-07-23T15:59:53;7.80;;;4.10;;
42146;SDS011;27815;43.410;11.852;2022-07-23T16:03:59;5.90;;;4.22;;
42146;SDS011;27815;43.410;11.852;2022-07-23T16:08:03;7.20;;;5.03;;
42146;SDS011;27815;43.410;11.852;2022-07-23T16:12:07;9.82;;;5.32;;
42146;SDS011;27815;43.410;11.852;2022-07-23T16:16:17;8.30;;;5.20;;
42146;SDS011;27815;43.410;11.852;2022-07-23T16:20:35;6.93;;;4.95;;
42146;SDS011;27815;43.410;11.852;2022-07-23T16:24:39;7.65;;;5.05;;
42146;SDS011;27815;43.410;11.852;2022-07-23T16:28:43;8.77;;;4.70;;
42146;SDS011;27815;43.410;11.852;2022-07-23T16:32:49;6.20;;;5.03;;
42146;SDS011;27815;43.410;11.852;2022-07-23T16:36:53;6.35;;;4.80;;
42146;SDS011;27815;43.410;11.852;2022-07-23T16:41:01;7.72;;;4.70;;
42146;SDS011;27815;43.410;11.852;2022-07-23T16:45:07;7.22;;;4.53;;
42146;SDS011;27815;43.410;11.852;2022-07-23T16:49:14;8.05;;;4.70;;
42146;SDS011;27815;43.410;11.852;2022-07-23T16:53:18;8.05;;;4.32;;
42146;SDS011;27815;43.410;11.852;2022-07-23T16:57:21;6.00;;;4.05;;
42146;SDS011;27815;43.410;11.852;2022-07-23T17:01:27;7.38;;;4.00;;
42146;SDS011;27815;43.410;11.852;2022-07-23T17:05:31;9.82;;;4.20;;
42146;SDS011;27815;43.410;11.852;2022-07-23T17:09:34;6.20;;;4.03;;
42146;SDS011;27815;43.410;11.852;2022-07-23T17:13:37;7.25;;;4.40;;
42146;SDS011;27815;43.410;11.852;2022-07-23T17:17:41;6.38;;;4.03;;
42146;SDS011;27815;43.410;11.852;2022-07-23T17:21:44;8.50;;;3.90;;
42146;SDS011;27815;43.410;11.852;2022-07-23T17:25:47;8.90;;;4.28;;
42146;SDS011;27815;43.410;11.852;2022-07-23T17:29:50;7.45;;;4.28;;
42146;SDS011;27815;43.410;11.852;2022-07-23T17:33:54;5.03;;;3.88;;
42146;SDS011;27815;43.410;11.852;2022-07-23T17:37:57;6.35;;;4.10;;
42146;SDS011;27815;43.410;11.852;2022-07-23T17:42:00;7.13;;;3.88;;
42146;SDS011;27815;43.410;11.852;2022-07-23T17:46:03;4.90;;;3.35;;
42146;SDS011;27815;43.410;11.852;2022-07-23T17:50:06;6.28;;;3.58;;
42146;SDS011;27815;43.410;11.852;2022-07-23T17:54:09;5.57;;;4.05;;
42146;SDS011;27815;43.410;11.852;2022-07-23T17:58:12;8.30;;;4.10;;
42146;SDS011;27815;43.410;11.852;2022-07-23T18:02:15;5.85;;;3.65;;
42146;SDS011;27815;43.410;11.852;2022-07-23T18:06:18;5.65;;;3.72;;
42146;SDS011;27815;43.410;11.852;2022-07-23T18:10:21;7.95;;;3.72;;
42146;SDS011;27815;43.410;11.852;2022-07-23T18:14:24;6.97;;;3.70;;
42146;SDS011;27815;43.410;11.852;2022-07-23T18:18:28;5.20;;;3.70;;
42146;SDS011;27815;43.410;11.852;2022-07-23T18:22:30;6.55;;;4.05;;
42146;SDS011;27815;43.410;11.852;2022-07-23T18:26:33;7.88;;;3.72;;
42146;SDS011;27815;43.410;11.852;2022-07-23T18:30:37;7.47;;;3.75;;
42146;SDS011;27815;43.410;11.852;2022-07-23T18:34:40;9.52;;;4.00;;
42146;SDS011;27815;43.410;11.852;2022-07-23T18:38:45;4.70;;;3.53;;
42146;SDS011;27815;43.410;11.852;2022-07-23T18:42:57;7.68;;;4.75;;
42146;SDS011;27815;43.410;11.852;2022-07-23T18:47:00;7.00;;;4.15;;
42146;SDS011;27815;43.410;11.852;2022-07-23T18:51:03;6.65;;;3.95;;
42146;SDS011;27815;43.410;11.852;2022-07-23T18:55:07;7.45;;;3.83;;
42146;SDS011;27815;43.410;11.852;2022-07-23T18:59:11;10.40;;;4.07;;
42146;SDS011;27815;43.410;11.852;2022-07-23T19:03:25;7.95;;;3.97;;
42146;SDS011;27815;43.410;11.852;2022-07-23T19:07:29;7.72;;;3.38;;
42146;SDS011;27815;43.410;11.852;2022-07-23T19:11:33;8.80;;;3.83;;
42146;SDS011;27815;43.410;11.852;2022-07-23T19:15:36;7.45;;;3.85;;
42146;SDS011;27815;43.410;11.852;2022-07-23T19:19:39;6.45;;;3.58;;
42146;SDS011;27815;43.410;11.852;2022-07-23T19:23:42;5.68;;;3.75;;
42146;SDS011;27815;43.410;11.852;2022-07-23T19:27:45;6.47;;;3.70;;
42146;SDS011;27815;43.410;11.852;2022-07-23T19:31:48;9.60;;;3.92;;
42146;SDS011;27815;43.410;11.852;2022-07-23T19:35:52;8.93;;;4.20;;
42146;SDS011;27815;43.410;11.852;2022-07-23T19:39:55;11.20;;;4.28;;
42146;SDS011;27815;43.410;11.852;2022-07-23T19:43:58;10.68;;;4.50;;
42146;SDS011;27815;43.410;11.852;2022-07-23T19:48:00;8.52;;;4.20;;
42146;SDS011;27815;43.410;11.852;2022-07-23T19:52:04;8.18;;;3.63;;
42146;SDS011;27815;43.410;11.852;2022-07-23T19:56:07;7.10;;;4.28;;
42146;SDS011;27815;43.410;11.852;2022-07-23T20:00:11;6.70;;;3.95;;
42146;SDS011;27815;43.410;11.852;2022-07-23T20:04:15;5.50;;;3.75;;
42146;SDS011;27815;43.410;11.852;2022-07-23T20:08:18;8.48;;;4.03;;
42146;SDS011;27815;43.410;11.852;2022-07-23T20:12:20;8.40;;;3.67;;
42146;SDS011;27815;43.410;11.852;2022-07-23T20:16:24;7.35;;;4.07;;
42146;SDS011;27815;43.410;11.852;2022-07-23T20:20:28;7.03;;;3.65;;
42146;SDS011;27815;43.410;11.852;2022-07-23T20:24:31;7.00;;;3.92;;
42146;SDS011;27815;43.410;11.852;2022-07-23T20:28:34;6.30;;;3.70;;
42146;SDS011;27815;43.410;11.852;2022-07-23T20:32:37;9.80;;;3.35;;
42146;SDS011;27815;43.410;11.852;2022-07-23T20:36:40;8.27;;;3.78;;
42146;SDS011;27815;43.410;11.852;2022-07-23T20:40:43;5.82;;;3.53;;
42146;SDS011;27815;43.410;11.852;2022-07-23T20:44:48;5.03;;;3.22;;
42146;SDS011;27815;43.410;11.852;2022-07-23T20:48:52;5.75;;;3.80;;
42146;SDS011;27815;43.410;11.852;2022-07-23T20:52:55;8.13;;;3.67;;
42146;SDS011;27815;43.410;11.852;2022-07-23T20:56:58;6.65;;;3.40;;
42146;SDS011;27815;43.410;11.852;2022-07-23T21:01:01;6.15;;;3.75;;
42146;SDS011;27815;43.410;11.852;2022-07-23T21:05:05;6.55;;;3.60;;
42146;SDS011;27815;43.410;11.852;2022-07-23T21:09:23;8.10;;;3.88;;
42146;SDS011;27815;43.410;11.852;2022-07-23T21:13:25;10.60;;;4.28;;
42146;SDS011;27815;43.410;11.852;2022-07-23T21:17:28;5.60;;;3.67;;
42146;SDS011;27815;43.410;11.852;2022-07-23T21:21:32;7.07;;;3.85;;
42146;SDS011;27815;43.410;11.852;2022-07-23T21:25:35;5.18;;;3.33;;
42146;SDS011;27815;43.410;11.852;2022-07-23T21:29:38;7.88;;;3.78;;
42146;SDS011;27815;43.410;11.852;2022-07-23T21:33:41;6.88;;;3.95;;
42146;SDS011;27815;43.410;11.852;2022-07-23T21:37:45;5.05;;;3.42;;
42146;SDS011;27815;43.410;11.852;2022-07-23T21:41:48;7.57;;;3.90;;
42146;SDS011;27815;43.410;11.852;2022-07-23T21:45:51;6.07;;;3.75;;
42146;SDS011;27815;43.410;11.852;2022-07-23T21:49:54;6.60;;;3.75;;
42146;SDS011;27815;43.410;11.852;2022-07-23T21:54:04;7.82;;;3.90;;
42146;SDS011;27815;43.410;11.852;2022-07-23T21:58:08;6.03;;;3.95;;
42146;SDS011;27815;43.410;11.852;2022-07-23T22:02:12;7.57;;;3.90;;
42146;SDS011;27815;43.410;11.852;2022-07-23T22:06:15;7.57;;;3.75;;
42146;SDS011;27815;43.410;11.852;2022-07-23T22:10:18;6.75;;;3.95;;
42146;SDS011;27815;43.410;11.852;2022-07-23T22:14:22;6.72;;;3.97;;
42146;SDS011;27815;43.410;11.852;2022-07-23T22:18:24;6.43;;;4.03;;
42146;SDS011;27815;43.410;11.852;2022-07-23T22:22:27;8.57;;;3.60;;
42146;SDS011;27815;43.410;11.852;2022-07-23T22:26:30;7.57;;;4.35;;
42146;SDS011;27815;43.410;11.852;2022-07-23T22:30:33;7.93;;;4.50;;
42146;SDS011;27815;43.410;11.852;2022-07-23T22:34:36;8.63;;;4.43;;
42146;SDS011;27815;43.410;11.852;2022-07-23T22:38:39;6.95;;;3.95;;
42146;SDS011;27815;43.410;11.852;2022-07-23T22:42:43;7.45;;;4.30;;
42146;SDS011;27815;43.410;11.852;2022-07-23T22:46:46;8.52;;;4.75;;
42146;SDS011;27815;43.410;11.852;2022-07-23T22:50:49;7.25;;;4.43;;
42146;SDS011;27815;43.410;11.852;2022-07-23T22:54:52;9.65;;;4.40;;
42146;SDS011;27815;43.410;11.852;2022-07-23T22:58:55;8.70;;;4.55;;
42146;SDS011;27815;43.410;11.852;2022-07-23T23:03:18;7.70;;;4.25;;
42146;SDS011;27815;43.410;11.852;2022-07-23T23:07:21;7.18;;;3.90;;
42146;SDS011;27815;43.410;11.852;2022-07-23T23:11:25;5.57;;;4.03;;
42146;SDS011;27815;43.410;11.852;2022-07-23T23:15:28;10.07;;;4.57;;
42146;SDS011;27815;43.410;11.852;2022-07-23T23:19:31;8.38;;;4.80;;
42146;SDS011;27815;43.410;11.852;2022-07-23T23:23:34;7.85;;;4.35;;
42146;SDS011;27815;43.410;11.852;2022-07-23T23:27:37;6.20;;;4.40;;
42146;SDS011;27815;43.410;11.852;2022-07-23T23:31:40;7.80;;;4.70;;
42146;SDS011;27815;43.410;11.852;2022-07-23T23:35:44;7.25;;;4.88;;
42146;SDS011;27815;43.410;11.852;2022-07-23T23:39:50;6.55;;;4.50;;
42146;SDS011;27815;43.410;11.852;2022-07-23T23:43:53;6.55;;;4.40;;
42146;SDS011;27815;43.410;11.852;2022-07-23T23:47:56;8.73;;;4.85;;
42146;SDS011;27815;43.410;11.852;2022-07-23T23:51:59;7.00;;;4.65;;
42146;SDS011;27815;43.410;11.852;2022-07-23T23:56:02;9.65;;;4.75;;
